Flight Track Log - Related Links

Times and Time Zones

All times are in EDT time to prevent confusion due to time zone crossing. See the SWA499 flight status page for this flight to view local times or setup timezone preferences in your user account.

Time Position Orientation Groundspeed Altitude Reporting Facility
EDT Latitude Longitude Course Direction KTS MPH feet Rate Location/Type
Wed 12:35:05 PM 39.7833 -104.6167 113° Southeast 235 270 9,200  Level Denver TRACON
Wed 12:36:05 PM 39.7667 -104.5167 102° East 288 331 10,000 789 Climbing Denver TRACON
Wed 12:36:59 PM 39.7667 -104.4167 90° East 314 361 10,700 2,308 Climbing Denver TRACON
Wed 12:38:15 PM 39.7675 -104.2733 90° East 334 384 15,000 3,174 Climbing Denver Center
Wed 12:39:17 PM 39.7656 -104.1425 91° East 361 415 18,000 2,855 Climbing Denver Center
Wed 12:40:00 PM 39.7427 -103.7780 113° Southeast  Level FlightAware Approximate
Wed 12:40:19 PM 39.7647 -103.9903 90° East 394 453 20,900  Level Denver Center
Wed 12:41:21 PM 39.7539 -103.8386 95° East 423 487 23,300 2,226 Climbing Denver Center
Wed 12:42:23 PM 39.7381 -103.6808 97° East 430 495 25,500 1,839 Climbing Denver Center
Wed 12:44:27 PM 39.7078 -103.3214 96° East 508 585 29,000 1,604 Climbing Denver Center
Wed 12:45:30 PM 39.6925 -103.1264 96° East 539 620 30,500 1,728 Climbing Denver Center
Wed 12:46:32 PM 39.6725 -102.8872 96° East 564 649 32,600 2,129 Climbing Denver Center
Wed 12:47:34 PM 39.6533 -102.6858 97° East 564 649 34,900 1,161 Climbing Denver Center
Wed 12:48:36 PM 39.6378 -102.4942 96° East 561 646 35,000 48 Climbing Denver Center
Wed 12:49:38 PM 39.6183 -102.2708 96° East 559 643 35,000 242 Level Denver Center
Wed 12:50:40 PM 39.6003 -102.0781 97° East 562 647 35,500 1,355 Climbing Denver Center
Wed 12:51:42 PM 39.5817 -101.8572 96° East 556 640 37,800 1,694 Climbing Denver Center
Wed 12:52:44 PM 39.5669 -101.6728 96° East 543 625 39,000 581 Climbing Denver Center
Wed 12:53:46 PM 39.5492 -101.4594 96° East 536 617 39,000  Level Denver Center
Wed 12:54:48 PM 39.5275 -101.2808 99° East 531 611 39,000  Level Denver Center
Wed 12:55:50 PM 39.4958 -101.0711 101° East 532 612 39,000  Level Denver Center
Wed 12:56:52 PM 39.4683 -100.8897 101° East 537 618 39,000  Level Denver Center
Wed 12:57:54 PM 39.4364 -100.6828 101° East 529 609 39,000  Level Denver Center
Wed 12:58:56 PM 39.4089 -100.5028 101° East 533 613 39,000  Level Denver Center
Wed 12:59:58 PM 39.3769 -100.2947 101° East 532 612 39,000  Level Denver Center
Wed 01:01:00 PM 39.3489 -100.1147 101° East 535 616 39,000  Level Denver Center
Wed 01:02:02 PM 39.3153 -99.9053 102° East 536 617 39,000  Level Denver Center
Wed 01:03:04 PM 39.2861 -99.7267 102° East 533 613 39,000  Level Denver Center
Wed 01:04:06 PM 39.2519 -99.5158 102° East 537 618 39,000  Level Denver Center
Wed 01:05:08 PM 39.2225 -99.3378 102° East 533 613 39,000  Level Denver Center
Wed 01:06:10 PM 39.1881 -99.1272 102° East 537 618 39,000 -240 Level Denver Center
Wed 01:07:13 PM 39.1597 -98.9597 102° East 538 619 38,500 -672 Descending Denver Center
Wed 01:08:15 PM 39.1275 -98.7714 102° East 538 619 37,600 -962 Descending Denver Center
Wed 01:08:59 PM 39.1028 -98.6258 102° East 546 628 36,800 -944 Descending Kansas City Center
Wed 01:10:03 PM 39.0683 -98.4328 103° East 553 636 35,900 -864 Descending Kansas City Center
Wed 01:11:04 PM 39.0275 -98.1969 102° East 560 644 35,000 -435 Descending Kansas City Center
Wed 01:12:07 PM 39.0064 -98.0022 98° East 558 642 35,000  Level Kansas City Center
Wed 01:13:08 PM 38.9958 -97.8067 94° East 560 644 35,000  Level Kansas City Center
Wed 01:14:09 PM 38.9806 -97.5861 95° East 555 639 35,000  Level Kansas City Center
Wed 01:15:13 PM 38.9667 -97.4058 96° East 555 639 35,000  Level Kansas City Center
Wed 01:16:14 PM 38.9528 -97.2083 95° East 554 638 35,000  Level Kansas City Center
Wed 01:17:17 PM 38.9381 -97.0106 95° East 555 639 35,000 -968 Level Kansas City Center
Wed 01:18:18 PM 38.9231 -96.8153 96° East 549 632 33,000 -3,098 Descending Kansas City Center
Wed 01:19:19 PM 38.9050 -96.5725 95° East 566 651 28,700 -3,024 Descending Kansas City Center
Wed 01:20:23 PM 38.8881 -96.3861 97° East 569 655 26,700 -1,790 Descending Kansas City Center
Wed 01:21:23 PM 38.8711 -96.1775 96° East 538 619 25,000 -823 Descending Kansas City Center
Wed 01:22:27 PM 38.8569 -96.0133 96° East 493 567 25,000  Level Kansas City Center
Wed 01:23:27 PM 38.8400 -95.8175 96° East 494 568 25,000 -1,984 Level Kansas City Center
Wed 01:24:31 PM 38.8258 -95.6492 96° East 498 573 20,900 -3,456 Descending Kansas City Center
Wed 01:25:32 PM 38.8097 -95.4583 96° East 487 560 17,800 -3,098 Descending Kansas City Center
Wed 01:26:33 PM 38.8592 -95.3378 62° Northeast 408 470 14,600 -3,120 Descending Kansas City Center
Wed 01:27:37 PM 38.9625 -95.2761 25° Northeast 366 421 11,300 -2,160 Descending Kansas City Center
Wed 01:28:38 PM 39.0042 -95.1783 61° Northeast 332 382 10,100 -1,426 Descending Kansas City Center
Wed 01:29:39 PM 39.0089 -95.0631 87° East 298 343 8,400 -1,258 Descending Kansas City Center
Wed 01:30:42 PM 39.0006 -94.9661 96° East 287 330 7,500 -968 Descending Kansas City Center
Wed 01:31:43 PM 38.9994 -94.8703 91° East 242 278 6,400 -1,008 Descending Kansas City Center
Wed 01:32:47 PM 39.0183 -94.7953 72° East 232 267 5,400 -672 Descending Kansas City Center
Wed 01:33:48 PM 39.0819 -94.7686 18° North 214 246 5,000 -677 Descending Kansas City Center
Wed 01:34:51 PM 39.1378 -94.7522 13° North 216 249 4,000 -968 Descending Kansas City Center
Wed 01:35:52 PM 39.1883 -94.7369 13° North 161 185 3,000 -816 Descending Kansas City Center
Wed 01:36:56 PM 39.2233 -94.7267 13° North 140 161 2,300 -774 Descending Kansas City Center
Wed 01:37:56 PM 39.2650 -94.7147 13° North 136 157 1,400 -629 Descending Kansas City Center
Wed 01:39:00 PM 39.2975 -94.7064 11° North 132 152 1,000 -375 Descending Kansas City Center

Login

Don't have an account? Register now (free) for customized features, flight alerts, and more!